createdAt,value
2023-05-16T00:00:17.977Z,12.40
2023-05-16T00:05:22.986Z,12.40
2023-05-16T00:10:27.202Z,12.30
2023-05-16T00:15:30.854Z,12.20
2023-05-16T00:20:35.893Z,12.10
2023-05-16T00:25:39.573Z,12.00
2023-05-16T00:30:43.072Z,12.00
2023-05-16T00:35:48.084Z,11.90
2023-05-16T00:40:51.637Z,11.90
2023-05-16T00:45:55.173Z,11.80
2023-05-16T00:51:00.401Z,11.80
2023-05-16T00:56:04.149Z,11.70
2023-05-16T01:01:08.234Z,11.70
2023-05-16T01:06:13.892Z,11.70
2023-05-16T01:11:22.075Z,11.60
2023-05-16T01:16:32.580Z,11.50
2023-05-16T01:21:49.359Z,11.40
2023-05-16T01:26:55.785Z,11.30
2023-05-16T01:31:59.659Z,11.20
2023-05-16T01:37:14.136Z,11.10
2023-05-16T01:42:22.689Z,11.10
2023-05-16T01:47:27.735Z,11.00
2023-05-16T01:52:45.601Z,10.90
2023-05-16T01:57:53.071Z,10.80
2023-05-16T02:02:56.811Z,10.80
2023-05-16T02:08:00.785Z,10.70
2023-05-16T02:13:05.874Z,10.60
2023-05-16T02:18:09.771Z,10.60
2023-05-16T02:23:13.807Z,10.50
2023-05-16T02:28:18.774Z,10.30
2023-05-16T02:33:22.346Z,10.10
2023-05-16T02:38:26.023Z,10.00
2023-05-16T02:43:31.153Z,9.80
2023-05-16T02:48:34.987Z,9.70
2023-05-16T02:53:38.654Z,9.60
2023-05-16T02:58:43.819Z,9.50
2023-05-16T03:03:47.713Z,9.50
2023-05-16T03:08:51.129Z,9.60
2023-05-16T03:13:56.525Z,9.60
2023-05-16T03:19:00.707Z,9.50
2023-05-16T03:24:04.377Z,9.40
2023-05-16T03:29:09.426Z,9.20
2023-05-16T03:34:13.264Z,9.20
2023-05-16T03:39:17.214Z,9.20
2023-05-16T03:44:22.293Z,9.20
2023-05-16T03:49:28.707Z,9.20
2023-05-16T03:54:32.421Z,9.40
2023-05-16T03:59:37.318Z,9.50
2023-05-16T04:04:40.838Z,9.50
2023-05-16T04:09:44.483Z,9.60
2023-05-16T04:14:49.478Z,9.70
2023-05-16T04:19:52.922Z,9.80
2023-05-16T04:24:57.434Z,9.90
2023-05-16T04:30:02.519Z,9.90
2023-05-16T04:35:06.493Z,9.90
2023-05-16T04:40:11.544Z,10.00
2023-05-16T04:45:20.338Z,10.00
2023-05-16T04:50:24.004Z,10.10
2023-05-16T04:55:27.931Z,10.10
2023-05-16T05:00:32.830Z,10.10
2023-05-16T05:05:36.225Z,10.20
2023-05-16T05:10:39.820Z,10.20
2023-05-16T05:15:44.727Z,10.20
2023-05-16T05:20:48.320Z,10.30
2023-05-16T05:25:52.238Z,10.40
2023-05-16T05:30:57.247Z,10.50
2023-05-16T05:36:03.903Z,10.50
2023-05-16T05:41:08.261Z,10.50
2023-05-16T05:46:13.329Z,10.60
2023-05-16T05:51:18.164Z,10.60
2023-05-16T05:56:22.338Z,10.60
2023-05-16T06:01:27.679Z,10.70
2023-05-16T06:06:31.587Z,10.70
2023-05-16T06:11:35.334Z,10.80
2023-05-16T06:16:40.935Z,10.90
2023-05-16T06:21:45.975Z,10.90
2023-05-16T06:26:50.689Z,10.90
2023-05-16T06:31:55.866Z,11.20
2023-05-16T06:37:00.101Z,11.40
2023-05-16T06:42:03.794Z,11.50
2023-05-16T06:47:10.437Z,11.40
2023-05-16T06:52:13.817Z,11.30
2023-05-16T06:57:17.569Z,11.50
2023-05-16T07:02:22.349Z,11.50
2023-05-16T07:07:25.934Z,11.50
2023-05-16T07:12:29.376Z,11.60
2023-05-16T07:17:34.378Z,11.60
2023-05-16T07:22:37.949Z,11.50
2023-05-16T07:27:45.059Z,11.50
2023-05-16T07:32:50.823Z,11.40
2023-05-16T07:37:54.223Z,11.60
2023-05-16T07:42:59.790Z,11.60
2023-05-16T07:48:04.810Z,11.80
2023-05-16T07:53:08.421Z,11.90
2023-05-16T07:58:12.133Z,11.90
2023-05-16T08:03:17.249Z,12.00
2023-05-16T08:08:22.336Z,12.60
2023-05-16T08:13:26.209Z,13.30
2023-05-16T08:18:31.228Z,13.60
2023-05-16T08:23:34.900Z,13.70
2023-05-16T08:28:38.506Z,13.50
2023-05-16T08:33:43.595Z,13.40
2023-05-16T08:38:47.211Z,13.60
2023-05-16T08:43:50.962Z,13.90
2023-05-16T08:49:00.109Z,14.20
2023-05-16T08:54:05.991Z,14.10
2023-05-16T08:59:11.508Z,13.80
2023-05-16T09:04:17.201Z,13.50
2023-05-16T09:09:21.230Z,13.70
2023-05-16T09:14:24.529Z,14.20
2023-05-16T09:19:34.339Z,14.40
2023-05-16T09:24:40.784Z,14.20
2023-05-16T09:29:45.357Z,13.70
2023-05-16T09:34:53.005Z,13.50
2023-05-16T09:39:56.805Z,13.80
2023-05-16T09:45:02.880Z,13.90
2023-05-16T09:50:09.277Z,13.80
2023-05-16T09:55:15.317Z,13.70
2023-05-16T10:00:20.103Z,13.50
2023-05-16T10:05:25.935Z,13.40
2023-05-16T10:10:29.798Z,13.10
2023-05-16T10:15:34.026Z,12.80
2023-05-16T10:20:39.970Z,13.00
2023-05-16T10:25:45.097Z,13.30
2023-05-16T10:30:49.286Z,13.60
2023-05-16T10:35:55.026Z,13.60
2023-05-16T10:40:58.772Z,13.70
2023-05-16T10:46:06.126Z,13.50
2023-05-16T10:51:39.259Z,13.40
2023-05-16T10:56:43.753Z,13.30
2023-05-16T11:01:54.889Z,13.00
2023-05-16T11:07:00.702Z,13.00
2023-05-16T11:12:04.453Z,12.70
2023-05-16T11:17:12.831Z,12.70
2023-05-16T11:22:28.307Z,12.90
2023-05-16T11:27:33.230Z,13.20
2023-05-16T11:32:38.628Z,13.70
2023-05-16T11:37:43.737Z,14.10
2023-05-16T11:42:49.164Z,14.50
2023-05-16T11:47:52.562Z,14.10
2023-05-16T11:52:57.973Z,14.10
2023-05-16T11:58:02.410Z,14.30
2023-05-16T12:03:06.917Z,14.70
2023-05-16T12:08:13.079Z,15.10
2023-05-16T12:13:19.364Z,15.20
2023-05-16T12:18:26.434Z,14.90
2023-05-16T12:23:32.141Z,14.80
2023-05-16T12:28:39.707Z,14.90
2023-05-16T12:33:43.475Z,15.20
2023-05-16T12:38:49.584Z,15.90
2023-05-16T12:43:53.275Z,16.20
2023-05-16T12:49:05.583Z,16.20
2023-05-16T12:54:12.596Z,16.30
2023-05-16T12:59:17.163Z,16.00
2023-05-16T13:04:20.836Z,15.80
2023-05-16T13:09:29.073Z,16.30
2023-05-16T13:14:35.580Z,16.30
2023-05-16T13:19:39.182Z,16.20
2023-05-16T13:24:44.154Z,16.20
2023-05-16T13:29:48.054Z,16.00
2023-05-16T13:34:51.618Z,16.30
2023-05-16T13:39:56.727Z,16.00
2023-05-16T13:45:00.065Z,15.60
2023-05-16T13:50:06.628Z,15.30
2023-05-16T13:55:11.872Z,15.60
2023-05-16T14:05:23.147Z,16.20
2023-05-16T14:10:28.401Z,15.60
2023-05-16T14:15:32.219Z,15.70
2023-05-16T14:20:35.861Z,15.40
2023-05-16T14:25:40.437Z,15.60
2023-05-16T14:30:44.966Z,15.70
2023-05-16T14:35:50.283Z,15.50
2023-05-16T14:40:54.900Z,15.80
2023-05-16T14:45:58.332Z,16.20
2023-05-16T14:51:01.683Z,16.30
2023-05-16T14:56:06.751Z,16.20
2023-05-16T15:01:10.125Z,16.00
2023-05-16T15:06:13.600Z,16.40
2023-05-16T15:11:18.278Z,17.00
2023-05-16T15:16:21.914Z,16.60
2023-05-16T15:21:25.683Z,16.30
2023-05-16T15:26:31.032Z,16.00
2023-05-16T15:31:35.049Z,15.80
2023-05-16T15:36:38.832Z,15.70
2023-05-16T15:42:08.444Z,15.60
2023-05-16T15:47:08.451Z,15.70
2023-05-16T15:52:12.129Z,15.80
2023-05-16T15:57:16.823Z,15.70
2023-05-16T16:02:20.088Z,15.70
2023-05-16T16:07:23.362Z,15.90
2023-05-16T16:12:31.460Z,15.90
2023-05-16T16:17:35.369Z,16.10
2023-05-16T16:22:38.709Z,16.10
2023-05-16T16:27:43.973Z,16.30
2023-05-16T16:32:48.975Z,16.50
2023-05-16T16:38:05.769Z,16.60
2023-05-16T16:43:11.905Z,16.50
2023-05-16T16:48:15.570Z,16.30
2023-05-16T16:53:19.212Z,16.30
2023-05-16T16:58:24.257Z,16.20
2023-05-16T17:03:27.898Z,17.00
2023-05-16T17:08:31.780Z,17.30
2023-05-16T17:13:37.978Z,17.50
2023-05-16T17:18:43.235Z,17.80
2023-05-16T17:23:46.887Z,18.20
2023-05-16T17:28:52.341Z,17.70
2023-05-16T17:33:55.694Z,18.00
2023-05-16T17:38:59.634Z,17.70
2023-05-16T17:44:06.791Z,17.30
2023-05-16T17:49:10.688Z,17.10
2023-05-16T17:54:13.952Z,17.00
2023-05-16T17:59:19.120Z,17.10
2023-05-16T18:04:23.815Z,17.10
2023-05-16T18:09:27.518Z,16.80
2023-05-16T18:14:33.056Z,16.30
2023-05-16T18:19:37.511Z,15.80
2023-05-16T18:24:41.346Z,15.10
2023-05-16T18:29:46.524Z,14.50
2023-05-16T18:34:50.316Z,14.10
2023-05-16T18:39:53.950Z,13.80
2023-05-16T18:44:58.607Z,13.50
2023-05-16T18:50:02.713Z,13.30
2023-05-16T18:55:06.727Z,13.10
2023-05-16T19:00:12.776Z,12.90
2023-05-16T19:05:16.323Z,12.60
2023-05-16T19:10:28.642Z,12.40
2023-05-16T19:15:34.267Z,12.20
2023-05-16T19:20:37.925Z,12.10
2023-05-16T19:25:47.721Z,11.80
2023-05-16T19:30:52.754Z,11.50
2023-05-16T19:35:57.698Z,11.40
2023-05-16T19:41:01.162Z,11.10
2023-05-16T19:46:05.927Z,10.90
2023-05-16T19:51:09.876Z,10.90
2023-05-16T19:56:13.294Z,10.70
2023-05-16T20:01:20.317Z,10.70
2023-05-16T20:06:23.645Z,10.60
2023-05-16T20:11:27.078Z,10.50
2023-05-16T20:16:32.202Z,10.40
2023-05-16T20:21:35.987Z,10.30
2023-05-16T20:26:39.827Z,10.10
2023-05-16T20:31:44.914Z,10.00
2023-05-16T20:36:48.556Z,9.90
2023-05-16T20:41:52.309Z,9.80
2023-05-16T20:46:57.454Z,9.80
2023-05-16T20:52:01.089Z,9.80
2023-05-16T20:57:04.871Z,9.70
2023-05-16T21:02:11.229Z,9.60
2023-05-16T21:07:14.899Z,9.60
2023-05-16T21:12:18.488Z,9.50
2023-05-16T21:17:23.439Z,9.30
2023-05-16T21:22:27.092Z,9.30
2023-05-16T21:27:30.372Z,9.20
2023-05-16T21:32:35.002Z,9.10
2023-05-16T21:37:38.311Z,9.00
2023-05-16T21:42:41.649Z,9.00
2023-05-16T21:47:46.672Z,8.90
2023-05-16T21:52:49.989Z,8.90
2023-05-16T21:57:53.201Z,8.80
2023-05-16T22:02:57.966Z,8.80
2023-05-16T22:08:01.267Z,8.60
2023-05-16T22:13:04.555Z,8.50
2023-05-16T22:18:09.375Z,8.40
2023-05-16T22:23:12.607Z,8.30
2023-05-16T22:28:15.833Z,8.20
2023-05-16T22:33:22.688Z,8.10
2023-05-16T22:38:26.078Z,8.00
2023-05-16T22:43:29.613Z,8.00
2023-05-16T22:48:34.308Z,7.90
2023-05-16T22:53:37.520Z,7.80
2023-05-16T22:58:40.751Z,7.80
2023-05-16T23:03:45.504Z,7.70
2023-05-16T23:08:49.286Z,7.70
2023-05-16T23:13:52.785Z,7.60
2023-05-16T23:18:57.939Z,7.60
2023-05-16T23:24:01.282Z,7.50
2023-05-16T23:29:04.500Z,7.50
2023-05-16T23:34:09.968Z,7.50
2023-05-16T23:39:13.717Z,7.50
2023-05-16T23:44:17.045Z,7.50
2023-05-16T23:49:22.036Z,7.50
2023-05-16T23:54:25.938Z,7.40
2023-05-16T23:59:29.746Z,7.30
